Startpagina
METAR-TAF:

METAR-TAF

Vliegvelden :

Fort-de-France, Martinique

breedte: 14-36N, lengte: 061-00W, hoogte: 5 m

Actueel weer

Dit bericht is 19 minuten geleden gemaakt, om 04:30 UTC
Wind 12 kt uit het oosten
Temperatuur 24°C
Vochtigheid 83%
Druk 1017 hPa
Zicht 10 km of meer

METAR: TFFF 200430Z AUTO 10012KT 9999 FEW021/// SCT050/// BKN060/// ///TCU 24/21 Q1017 TEMPO 4000 SHRA

Tijdstip: 00:49 (04:49 UTC)

Verwachting

Dit bericht is 6 uur en het 49 minuten geleden gemaakt, om 22:00 UTC
Verwachting geldig van 20 om 00 UTC tot 20 om 24 UTC
Wind 8 kt uit het oosten
Zicht 10 km of meer
Weinig wolken op 2300 ft
Gebroken wolken op 3500 ft
Tijdelijke
van 20 om 00 UTC tot 20 om 09 UTC
Zicht: 4000 m
Weinig wolken op 2000 ft, Stapelwolken.
Gebroken wolken op 2500 ft
regenbuien
Kans 30% :
Tijdelijke
van 20 om 17 UTC tot 20 om 24 UTC
Zicht: 4000 m
Gebroken wolken op 2500 ft
regenbuien

TAF: TFFF 192200Z 2000/2024 08008KT 9999 FEW023 BKN035 TEMPO 2000/2009 4000 SHRA FEW020TCU BKN025 PROB30 TEMPO 2017/2024 4000 SHRA BKN025

Waarnemingen en weersverwachtingen van meer dan 4000 vliegvelden (METAR en TAF).

De beschikbare stations zijn de gele en rode punten op de kaart.

Ga met uw muis naar het station om de naam te zien.

Klik dan om waarnemingen en weersverwachtingen te zien.

kaart wijzigen: klik op de groene knoppen met een zwart kruis om in te zoomen, op de groene knop met een streepje om uit te zoomen of op de groene pijlen voor aangrenzende kaarten.


METAR-TAF: